Time;durP1;ratioP1;P1;durP2;ratioP2;P2;SDS_P1;SDS_P2;PMS_P1;PMS_P2;Temp;Humidity;BMP_temperature;BMP_pressure;BME280_temperature;BME280_humidity;BME280_pressure;Samples;Min_cycle;Max_cycle;Signal;HPM_P1;HPM_P2
2021/09/26 00:01:03;;;;;;;18.57;14.87;;;16.70;99.90;;;;;;5033232;28;20659;-79
2021/09/26 00:03:29;;;;;;;21.53;15.80;;;16.70;99.90;;;;;;5033612;28;20173;-79
2021/09/26 00:05:54;;;;;;;22.97;15.00;;;16.70;99.90;;;;;;5037540;28;20492;-79
2021/09/26 00:08:20;;;;;;;22.83;15.87;;;16.70;99.90;;;;;;5039174;28;20419;-79
2021/09/26 00:10:45;;;;;;;24.80;16.00;;;16.60;99.90;;;;;;5051561;28;20221;-80
2021/09/26 00:13:11;;;;;;;23.30;16.03;;;16.60;99.90;;;;;;5042641;28;20179;-79
2021/09/26 00:15:37;;;;;;;20.97;15.97;;;16.60;99.90;;;;;;5042007;28;20195;-78
2021/09/26 00:18:05;;;;;;;21.60;15.67;;;16.60;99.90;;;;;;5042650;28;20479;-79
2021/09/26 00:20:34;;;;;;;18.13;14.33;;;16.60;99.90;;;;;;5042308;28;20189;-79
2021/09/26 00:23:00;;;;;;;20.50;14.13;;;16.60;99.90;;;;;;5041230;28;20412;-79
2021/09/26 00:25:29;;;;;;;17.33;13.43;;;16.60;99.90;;;;;;5041792;28;20442;-80
2021/09/26 00:27:55;;;;;;;20.77;13.50;;;16.60;99.90;;;;;;5040831;28;20411;-79
2021/09/26 00:30:23;;;;;;;20.13;14.80;;;16.60;99.90;;;;;;5040853;28;20449;-79
2021/09/26 00:32:49;;;;;;;19.30;14.27;;;16.60;99.90;;;;;;5042150;28;20181;-80
2021/09/26 00:35:17;;;;;;;19.37;12.77;;;16.60;99.90;;;;;;5041423;28;20439;-79
2021/09/26 00:37:44;;;;;;;20.63;14.40;;;16.60;99.90;;;;;;5040484;28;20201;-79
2021/09/26 00:40:10;;;;;;;18.50;14.30;;;16.60;99.90;;;;;;5041348;28;20412;-80
2021/09/26 00:42:36;;;;;;;20.10;13.53;;;16.60;99.90;;;;;;5023896;28;20445;-80
2021/09/26 00:45:03;;;;;;;17.50;13.50;;;16.60;99.90;;;;;;5041339;28;20500;-80
2021/09/26 00:47:29;;;;;;;16.90;11.90;;;16.70;99.90;;;;;;5040384;28;20439;-80
2021/09/26 00:49:54;;;;;;;18.73;12.37;;;16.70;99.90;;;;;;5040381;28;20419;-80
2021/09/26 00:52:21;;;;;;;19.37;12.87;;;16.70;99.90;;;;;;5023680;28;20668;-80
2021/09/26 00:54:47;;;;;;;19.33;13.50;;;16.70;99.90;;;;;;5041025;28;20200;-79
2021/09/26 00:57:13;;;;;;;17.00;11.90;;;16.70;99.90;;;;;;5039980;28;20500;-80
2021/09/26 00:59:39;;;;;;;17.50;12.67;;;16.70;99.90;;;;;;5041341;28;20499;-80
2021/09/26 01:02:04;;;;;;;17.57;12.03;;;16.70;99.90;;;;;;5040070;28;20416;-80
2021/09/26 01:04:31;;;;;;;17.90;11.70;;;16.70;99.90;;;;;;5040962;28;20173;-80
2021/09/26 01:07:19;;;;;;;16.83;11.93;;;16.60;99.90;;;;;;5039605;28;20689;-80
2021/09/26 01:10:04;;;;;;;17.53;13.00;;;16.60;99.90;;;;;;5040938;28;20438;-80
2021/09/26 01:12:47;;;;;;;15.30;11.80;;;16.60;99.90;;;;;;5039771;28;20507;-79
2021/09/26 01:15:42;;;;;;;16.00;11.77;;;16.60;99.90;;;;;;5040787;28;20551;-80
2021/09/26 01:18:31;;;;;;;18.13;11.70;;;16.60;99.90;;;;;;5035187;28;20494;-79
2021/09/26 01:21:09;;;;;;;20.40;13.63;;;16.60;99.90;;;;;;5052247;28;20424;-80
2021/09/26 01:24:16;;;;;;;19.07;12.47;;;16.60;99.90;;;;;;5035965;28;20407;-80
2021/09/26 01:26:46;;;;;;;16.60;12.10;;;16.60;99.90;;;;;;5036356;28;20811;-80
2021/09/26 01:29:57;;;;;;;19.30;13.37;;;16.60;99.90;;;;;;5019162;28;20493;-80
2021/09/26 01:32:24;;;;;;;21.07;13.43;;;16.70;99.90;;;;;;5036612;28;20407;-78
2021/09/26 01:34:53;;;;;;;15.93;11.87;;;16.60;99.90;;;;;;5034245;28;20415;-80
2021/09/26 01:37:45;;;;;;;21.40;14.30;;;16.60;99.90;;;;;;5036287;28;20419;-81
2021/09/26 01:40:50;;;;;;;23.73;14.57;;;16.60;99.90;;;;;;5037305;28;20416;-80
2021/09/26 01:43:20;;;;;;;19.73;12.97;;;16.60;99.90;;;;;;4987897;28;20478;-80
2021/09/26 01:45:54;;;;;;;21.10;13.40;;;16.60;99.90;;;;;;5036678;28;20428;-80
2021/09/26 01:48:41;;;;;;;19.50;12.77;;;16.60;99.90;;;;;;5038112;28;20923;-80
2021/09/26 01:51:09;;;;;;;19.20;13.50;;;16.60;99.90;;;;;;5037737;28;20404;-80
2021/09/26 01:53:39;;;;;;;17.43;12.60;;;16.60;99.90;;;;;;5036010;28;20775;-80
2021/09/26 01:56:05;;;;;;;18.03;12.90;;;16.60;99.90;;;;;;5037795;28;20467;-79
2021/09/26 01:58:32;;;;;;;18.20;13.63;;;16.60;99.90;;;;;;5037583;28;20482;-80
2021/09/26 02:01:01;;;;;;;20.27;14.43;;;16.60;99.90;;;;;;5036392;28;20431;-80
2021/09/26 02:03:27;;;;;;;21.70;14.23;;;16.60;99.90;;;;;;5037093;28;20466;-81
2021/09/26 02:05:53;;;;;;;19.87;13.60;;;16.60;99.90;;;;;;5036082;28;20931;-80
2021/09/26 02:08:19;;;;;;;17.80;12.87;;;16.60;99.90;;;;;;5037423;28;20815;-80
2021/09/26 02:10:47;;;;;;;19.97;13.73;;;16.60;99.90;;;;;;5036888;28;20440;-81
2021/09/26 02:13:14;;;;;;;20.93;14.97;;;16.60;99.90;;;;;;5036882;28;20427;-81
2021/09/26 02:15:43;;;;;;;20.67;14.10;;;16.50;99.90;;;;;;5036715;28;20440;-80
2021/09/26 02:18:09;;;;;;;20.10;12.73;;;16.60;99.90;;;;;;5038320;28;20520;-80
2021/09/26 02:20:37;;;;;;;18.43;12.73;;;16.60;99.90;;;;;;5037864;28;20461;-80
2021/09/26 02:23:02;;;;;;;18.53;12.67;;;16.50;99.90;;;;;;5037060;28;20416;-80
2021/09/26 02:25:28;;;;;;;24.20;13.93;;;16.50;99.90;;;;;;5020614;28;20844;-80
2021/09/26 02:27:55;;;;;;;18.03;12.57;;;16.40;99.90;;;;;;5036787;28;20228;-80
2021/09/26 02:30:21;;;;;;;22.77;13.90;;;16.40;99.90;;;;;;5038162;28;20427;-80
2021/09/26 02:32:46;;;;;;;19.67;13.20;;;16.50;99.90;;;;;;5037851;28;20436;-80
2021/09/26 02:35:13;;;;;;;16.70;12.33;;;16.50;99.90;;;;;;5037227;28;20443;-80
2021/09/26 02:37:39;;;;;;;19.80;12.83;;;16.60;99.90;;;;;;5036437;28;20293;-80
2021/09/26 02:40:06;;;;;;;18.53;13.10;;;16.60;99.90;;;;;;5046358;28;20420;-79
2021/09/26 02:42:56;;;;;;;16.60;12.87;;;16.60;99.90;;;;;;5045107;28;20169;-80
2021/09/26 02:45:24;;;;;;;17.47;13.10;;;16.60;99.90;;;;;;5034920;28;20420;-79
2021/09/26 02:47:53;;;;;;;19.77;14.17;;;16.50;99.90;;;;;;5035014;28;20899;-79
2021/09/26 02:50:20;;;;;;;21.03;12.93;;;16.40;99.90;;;;;;5034425;28;20404;-79
2021/09/26 02:52:46;;;;;;;18.67;13.60;;;16.30;99.90;;;;;;5033076;28;20424;-80
2021/09/26 02:55:14;;;;;;;23.53;13.90;;;16.30;99.90;;;;;;5015780;28;20450;-79
2021/09/26 02:57:41;;;;;;;16.57;13.33;;;16.20;99.90;;;;;;5032820;28;20467;-79
2021/09/26 03:00:07;;;;;;;16.97;12.27;;;16.20;99.90;;;;;;5032392;28;20489;-79
2021/09/26 03:02:33;;;;;;;16.37;12.27;;;16.00;99.90;;;;;;5033899;28;20396;-79
2021/09/26 03:05:00;;;;;;;18.80;13.30;;;15.80;99.90;;;;;;5032439;28;20408;-79
2021/09/26 03:07:25;;;;;;;20.80;13.27;;;15.90;99.90;;;;;;5032161;28;20515;-80
2021/09/26 03:09:51;;;;;;;18.03;13.10;;;16.00;99.90;;;;;;5017140;28;20446;-80
2021/09/26 03:12:20;;;;;;;16.33;12.53;;;16.20;99.90;;;;;;5033188;28;20192;-79
2021/09/26 03:14:47;;;;;;;19.67;12.80;;;16.20;99.90;;;;;;5034329;28;20169;-80
2021/09/26 03:17:12;;;;;;;18.10;13.03;;;16.30;99.90;;;;;;5034085;28;20444;-80
2021/09/26 03:19:38;;;;;;;17.43;12.70;;;16.40;99.90;;;;;;5033619;28;20932;-79
2021/09/26 03:22:05;;;;;;;18.13;11.90;;;16.40;99.90;;;;;;5036573;28;20455;-81
2021/09/26 03:24:32;;;;;;;18.00;13.30;;;16.40;99.90;;;;;;5035218;28;20204;-79
2021/09/26 03:27:03;;;;;;;19.23;13.33;;;16.50;99.90;;;;;;5034679;28;20518;-80
2021/09/26 03:29:32;;;;;;;19.50;13.97;;;16.20;99.90;;;;;;5035626;28;20546;-80
2021/09/26 03:31:59;;;;;;;15.00;11.50;;;16.00;99.90;;;;;;5034495;28;20408;-80
2021/09/26 03:34:27;;;;;;;16.70;11.97;;;15.80;99.90;;;;;;5033880;28;20828;-79
2021/09/26 03:36:52;;;;;;;18.67;12.30;;;15.70;99.90;;;;;;5035495;28;20442;-79
2021/09/26 03:39:18;;;;;;;18.20;12.87;;;15.60;99.90;;;;;;5035189;28;20861;-83
2021/09/26 03:41:43;;;;;;;16.30;12.27;;;15.50;99.90;;;;;;5035479;28;20271;-79
2021/09/26 03:44:09;;;;;;;15.27;11.20;;;15.60;99.90;;;;;;5018040;28;20611;-80
2021/09/26 03:46:38;;;;;;;16.47;11.50;;;15.50;99.90;;;;;;5035813;28;20251;-79
2021/09/26 03:49:03;;;;;;;16.83;12.00;;;15.50;99.90;;;;;;5035582;28;20185;-79
2021/09/26 03:51:29;;;;;;;15.13;10.73;;;15.80;99.90;;;;;;5018446;28;20784;-80
2021/09/26 03:53:58;;;;;;;15.60;11.17;;;16.00;99.90;;;;;;5034386;28;20184;-80
2021/09/26 03:56:24;;;;;;;13.73;10.73;;;16.10;99.90;;;;;;5036327;28;20877;-80
2021/09/26 03:58:49;;;;;;;17.17;10.60;;;16.20;99.90;;;;;;5035086;28;20550;-80
2021/09/26 04:01:15;;;;;;;19.00;12.13;;;16.20;99.90;;;;;;5017536;28;20703;-79
2021/09/26 04:03:43;;;;;;;15.20;10.17;;;16.20;99.90;;;;;;5034253;28;20326;-79
2021/09/26 04:06:14;;;;;;;15.00;10.10;;;16.10;99.90;;;;;;5032627;28;20295;-79
2021/09/26 04:08:40;;;;;;;14.70;10.57;;;16.20;99.90;;;;;;5032920;28;20491;-80
2021/09/26 04:11:07;;;;;;;16.93;10.90;;;16.30;99.90;;;;;;5033932;28;20416;-79
2021/09/26 04:13:32;;;;;;;13.87;9.33;;;16.30;99.90;;;;;;5033471;28;20180;-79
2021/09/26 04:15:58;;;;;;;15.10;11.30;;;16.40;99.90;;;;;;5033242;28;20431;-78
2021/09/26 04:18:24;;;;;;;13.40;9.90;;;16.20;99.90;;;;;;5033072;28;20280;-79
2021/09/26 04:20:53;;;;;;;13.90;11.00;;;16.00;99.90;;;;;;5032204;28;20177;-80
2021/09/26 04:23:19;;;;;;;15.17;10.40;;;15.90;99.90;;;;;;5033452;28;20169;-79
2021/09/26 04:25:44;;;;;;;13.47;9.90;;;15.80;99.90;;;;;;5033696;28;20431;-78
2021/09/26 04:28:10;;;;;;;15.50;10.40;;;15.70;99.90;;;;;;5032852;28;20180;-79
2021/09/26 04:30:41;;;;;;;15.93;10.33;;;15.70;99.90;;;;;;5033026;28;20177;-79
2021/09/26 04:33:07;;;;;;;15.93;11.33;;;15.70;99.90;;;;;;5032432;28;20169;-79
2021/09/26 04:35:32;;;;;;;15.80;10.57;;;15.80;99.90;;;;;;5035584;28;20451;-79
2021/09/26 04:37:58;;;;;;;13.50;10.37;;;15.90;99.90;;;;;;5035982;28;20221;-79
2021/09/26 04:40:24;;;;;;;16.57;11.97;;;15.80;99.90;;;;;;5034529;28;20176;-80
2021/09/26 04:42:50;;;;;;;14.73;10.17;;;15.70;99.90;;;;;;5034517;28;20189;-79
2021/09/26 04:45:16;;;;;;;14.03;10.17;;;15.60;99.90;;;;;;5034117;28;20428;-79
2021/09/26 04:47:43;;;;;;;12.53;8.60;;;15.70;99.90;;;;;;5032891;28;20203;-79
2021/09/26 04:50:09;;;;;;;15.47;10.77;;;15.70;99.90;;;;;;5032445;28;20176;-80
2021/09/26 04:52:35;;;;;;;14.20;10.57;;;15.70;99.90;;;;;;5037069;28;20404;-78
2021/09/26 04:55:02;;;;;;;13.70;9.03;;;15.80;99.90;;;;;;5035856;28;20412;-78
2021/09/26 04:57:27;;;;;;;13.03;9.13;;;15.80;99.90;;;;;;5038513;28;20743;-79
2021/09/26 04:59:53;;;;;;;16.73;11.27;;;15.70;99.90;;;;;;5038102;28;20461;-79
2021/09/26 05:02:22;;;;;;;12.50;9.07;;;15.70;99.90;;;;;;5038106;28;20204;-79
2021/09/26 05:04:47;;;;;;;17.33;10.57;;;15.70;99.90;;;;;;5037241;28;20201;-79
2021/09/26 05:07:13;;;;;;;17.80;10.53;;;15.80;99.90;;;;;;5035685;28;20431;-79
2021/09/26 05:09:42;;;;;;;14.80;10.30;;;16.00;99.90;;;;;;5038655;28;20174;-79
2021/09/26 05:12:08;;;;;;;12.40;9.50;;;16.10;99.90;;;;;;5038749;28;20544;-79
2021/09/26 05:14:37;;;;;;;13.63;9.87;;;16.20;99.90;;;;;;5038228;28;20416;-79
2021/09/26 05:17:04;;;;;;;13.43;9.70;;;16.30;99.90;;;;;;5039086;28;20523;-79
2021/09/26 05:19:29;;;;;;;14.80;11.40;;;16.30;99.90;;;;;;5037232;28;20466;-79
2021/09/26 05:21:54;;;;;;;12.37;8.90;;;16.30;99.90;;;;;;5038947;28;20420;-79
2021/09/26 05:24:20;;;;;;;17.50;10.63;;;16.30;99.90;;;;;;5038174;28;20185;-79
2021/09/26 05:26:46;;;;;;;14.17;9.47;;;16.30;99.90;;;;;;5037540;28;20239;-79
2021/09/26 05:29:12;;;;;;;12.90;8.87;;;16.40;99.90;;;;;;5036765;28;20459;-79
2021/09/26 05:31:38;;;;;;;13.67;10.30;;;16.40;99.90;;;;;;5039336;28;20173;-79
2021/09/26 05:34:04;;;;;;;12.93;9.73;;;16.50;99.90;;;;;;5038340;28;20552;-79
2021/09/26 05:36:29;;;;;;;13.30;10.20;;;16.50;99.90;;;;;;5021086;28;20448;-79
2021/09/26 05:38:55;;;;;;;12.67;9.40;;;16.60;99.90;;;;;;5038409;28;20470;-79
2021/09/26 05:41:21;;;;;;;12.20;9.17;;;16.50;99.90;;;;;;5038239;28;20253;-79
2021/09/26 05:43:46;;;;;;;13.73;9.40;;;16.60;99.90;;;;;;5037905;28;20483;-79
2021/09/26 05:46:12;;;;;;;12.90;9.27;;;16.40;99.90;;;;;;5038367;28;20257;-79
2021/09/26 05:48:38;;;;;;;13.60;10.00;;;16.50;99.90;;;;;;5037084;28;20235;-79
2021/09/26 05:51:04;;;;;;;13.73;10.07;;;16.50;99.90;;;;;;5038044;28;20217;-79
2021/09/26 05:53:29;;;;;;;15.00;10.20;;;16.60;99.90;;;;;;5036218;28;20188;-79
2021/09/26 05:55:55;;;;;;;15.23;9.57;;;16.60;99.90;;;;;;5037640;28;20220;-79
2021/09/26 05:58:21;;;;;;;11.53;9.07;;;16.50;99.90;;;;;;5004371;28;20201;-79
2021/09/26 06:00:47;;;;;;;13.73;9.90;;;16.50;99.90;;;;;;5020129;28;20268;-79
2021/09/26 06:03:16;;;;;;;16.97;9.60;;;16.50;99.90;;;;;;5036398;28;20178;-79
2021/09/26 06:05:46;;;;;;;16.70;10.43;;;16.60;99.90;;;;;;5037852;28;20808;-79
2021/09/26 06:08:11;;;;;;;12.03;9.40;;;16.70;99.90;;;;;;5036568;28;20444;-79
2021/09/26 06:10:38;;;;;;;16.30;10.10;;;16.70;99.90;;;;;;5036674;28;20463;-79
2021/09/26 06:13:04;;;;;;;15.37;10.60;;;16.80;99.90;;;;;;5037703;28;20169;-79
2021/09/26 06:15:30;;;;;;;13.80;10.33;;;16.80;99.90;;;;;;5037553;28;20437;-79
2021/09/26 06:17:57;;;;;;;13.10;9.47;;;16.90;99.90;;;;;;5036138;28;20452;-79
2021/09/26 06:20:22;;;;;;;14.50;8.87;;;16.90;99.90;;;;;;5035949;28;20516;-79
2021/09/26 06:22:56;;;;;;;12.40;8.97;;;17.00;99.90;;;;;;5037353;28;20476;-79
2021/09/26 06:25:21;;;;;;;14.07;8.63;;;17.00;99.90;;;;;;5037529;28;20428;-79
2021/09/26 06:27:50;;;;;;;13.57;9.87;;;17.10;99.90;;;;;;5036997;28;20411;-78
2021/09/26 06:30:16;;;;;;;13.23;9.50;;;17.10;99.90;;;;;;5035033;28;20193;-78
2021/09/26 06:32:41;;;;;;;15.87;10.37;;;17.00;99.90;;;;;;5035692;28;20413;-79
2021/09/26 06:35:07;;;;;;;11.83;8.90;;;17.10;99.90;;;;;;5036032;28;20195;-78
2021/09/26 06:37:36;;;;;;;14.60;10.60;;;17.00;99.90;;;;;;5034521;28;20190;-78
2021/09/26 06:40:01;;;;;;;18.80;10.93;;;17.20;99.90;;;;;;5035947;28;20412;-78
2021/09/26 06:42:27;;;;;;;12.00;9.27;;;17.40;99.90;;;;;;5036034;28;20397;-78
2021/09/26 06:44:53;;;;;;;14.63;9.70;;;17.60;99.90;;;;;;5017744;28;20187;-78
2021/09/26 06:47:18;;;;;;;13.73;9.00;;;17.60;99.90;;;;;;5034478;28;20177;-79
2021/09/26 06:49:44;;;;;;;13.73;9.30;;;17.80;99.90;;;;;;5035441;28;20180;-79
2021/09/26 06:52:12;;;;;;;13.10;8.90;;;17.90;99.90;;;;;;5033893;28;20667;-79
2021/09/26 06:54:46;;;;;;;19.60;11.03;;;18.10;99.90;;;;;;5035151;28;20171;-78
2021/09/26 06:57:12;;;;;;;13.20;9.70;;;18.30;99.90;;;;;;5035510;28;20930;-79
2021/09/26 06:59:39;;;;;;;13.70;9.40;;;18.50;99.90;;;;;;5033851;28;20455;-79
2021/09/26 07:02:05;;;;;;;11.20;9.30;;;18.50;99.90;;;;;;5035109;28;20165;-79
2021/09/26 07:04:31;;;;;;;16.40;10.27;;;18.60;99.90;;;;;;5034877;28;20748;-79
2021/09/26 07:06:56;;;;;;;12.97;9.40;;;18.70;99.90;;;;;;5033505;28;20459;-79
2021/09/26 07:09:24;;;;;;;12.63;8.63;;;18.70;99.90;;;;;;5033223;28;20264;-79
2021/09/26 07:11:52;;;;;;;12.97;9.60;;;18.70;99.90;;;;;;5034232;28;20197;-78
2021/09/26 07:14:18;;;;;;;10.90;7.90;;;18.70;99.90;;;;;;5032703;28;20412;-77
2021/09/26 07:16:44;;;;;;;11.90;8.43;;;18.80;99.90;;;;;;5034420;28;20435;-78
2021/09/26 07:19:09;;;;;;;12.67;10.03;;;18.80;99.90;;;;;;5034610;28;20201;-78
2021/09/26 07:21:35;;;;;;;15.20;9.50;;;18.80;99.90;;;;;;5038352;28;20170;-77
2021/09/26 07:24:00;;;;;;;12.37;8.43;;;18.70;99.90;;;;;;5034052;28;20243;-79
2021/09/26 07:26:26;;;;;;;13.53;8.83;;;18.80;99.90;;;;;;5033913;28;20201;-78
2021/09/26 07:28:51;;;;;;;12.63;8.17;;;18.80;99.90;;;;;;5034720;28;20177;-78
2021/09/26 07:31:17;;;;;;;12.73;9.20;;;18.70;99.90;;;;;;5034479;28;20192;-78
2021/09/26 07:33:43;;;;;;;13.43;9.97;;;18.80;99.90;;;;;;5033925;28;20188;-79
2021/09/26 07:36:09;;;;;;;12.97;9.43;;;18.80;99.90;;;;;;5032554;28;20820;-78
2021/09/26 07:38:35;;;;;;;20.23;9.70;;;18.90;99.90;;;;;;5033961;28;20294;-78
2021/09/26 07:41:00;;;;;;;14.60;9.57;;;18.90;99.90;;;;;;5016862;28;20428;-78
2021/09/26 07:43:26;;;;;;;12.17;8.70;;;18.90;99.90;;;;;;5034978;28;20178;-78
2021/09/26 07:45:53;;;;;;;12.40;9.50;;;18.90;99.90;;;;;;5034643;28;20193;-79
2021/09/26 07:48:20;;;;;;;8.90;7.63;;;18.90;99.90;;;;;;5034528;28;20737;-79
2021/09/26 07:50:46;;;;;;;8.60;7.70;;;19.00;99.90;;;;;;5033519;28;20447;-79
2021/09/26 07:53:11;;;;;;;12.03;7.70;;;19.10;99.90;;;;;;5034629;28;20420;-79
2021/09/26 07:55:39;;;;;;;9.50;6.63;;;19.10;99.90;;;;;;5034611;28;20494;-79
2021/09/26 07:58:05;;;;;;;11.13;6.63;;;19.20;99.90;;;;;;5034440;28;20292;-79
2021/09/26 08:00:34;;;;;;;8.77;6.67;;;19.20;99.90;;;;;;5032689;28;20483;-79
2021/09/26 08:02:59;;;;;;;11.03;7.07;;;19.30;99.90;;;;;;5033921;28;20597;-78
2021/09/26 08:05:25;;;;;;;8.90;6.87;;;19.30;99.90;;;;;;5032973;28;20425;-79
2021/09/26 08:07:50;;;;;;;8.10;6.47;;;19.30;99.90;;;;;;5032631;28;20181;-78
2021/09/26 08:10:16;;;;;;;9.60;7.10;;;19.30;99.90;;;;;;5034589;28;20213;-78
2021/09/26 08:12:42;;;;;;;9.90;7.00;;;19.40;99.90;;;;;;5034940;28;20647;-78
2021/09/26 08:15:09;;;;;;;7.73;6.30;;;19.50;99.90;;;;;;5035094;28;20187;-79
2021/09/26 08:17:34;;;;;;;10.97;7.03;;;19.40;99.90;;;;;;5033846;28;20404;-78
2021/09/26 08:20:00;;;;;;;8.90;6.87;;;19.50;99.90;;;;;;5032199;28;20506;-78
2021/09/26 08:22:27;;;;;;;8.03;6.63;;;19.50;99.90;;;;;;5032575;28;20196;-78
2021/09/26 08:24:53;;;;;;;7.67;6.20;;;19.50;99.90;;;;;;5034128;28;20222;-79
2021/09/26 08:27:19;;;;;;;10.70;7.50;;;19.60;99.90;;;;;;5039212;28;20404;-79
2021/09/26 08:29:45;;;;;;;7.30;5.90;;;19.70;99.90;;;;;;5039053;28;20322;-79
2021/09/26 08:32:11;;;;;;;8.03;6.47;;;19.70;99.90;;;;;;5038573;28;20183;-78
2021/09/26 08:34:37;;;;;;;9.10;6.40;;;19.70;99.90;;;;;;5041729;28;20413;-78
2021/09/26 08:37:02;;;;;;;7.60;6.63;;;19.70;99.90;;;;;;5036617;28;20448;-79
2021/09/26 08:39:28;;;;;;;7.60;6.20;;;19.80;99.90;;;;;;5038123;28;20199;-79
2021/09/26 08:41:55;;;;;;;7.23;6.00;;;19.90;99.90;;;;;;5036638;28;20650;-79
2021/09/26 08:44:22;;;;;;;7.57;6.10;;;19.90;99.90;;;;;;5037601;28;20254;-79
2021/09/26 08:46:50;;;;;;;9.07;6.80;;;20.00;99.90;;;;;;5035927;28;20454;-79
2021/09/26 08:49:19;;;;;;;11.67;8.03;;;20.00;99.90;;;;;;5037454;28;20408;-78
2021/09/26 08:51:50;;;;;;;9.70;6.60;;;20.10;99.90;;;;;;5037639;28;20455;-79
2021/09/26 08:54:15;;;;;;;8.57;6.30;;;20.10;99.90;;;;;;5038751;28;20415;-79
2021/09/26 08:56:42;;;;;;;6.17;5.53;;;20.10;99.90;;;;;;5040518;28;20434;-79
2021/09/26 08:59:11;;;;;;;6.57;5.87;;;20.20;99.90;;;;;;5037130;28;20463;-78
2021/09/26 09:01:37;;;;;;;6.80;6.17;;;20.20;99.90;;;;;;5038304;28;20426;-78
2021/09/26 09:04:07;;;;;;;8.47;6.40;;;20.20;99.90;;;;;;5039935;28;20412;-79
2021/09/26 09:06:38;;;;;;;6.43;5.43;;;20.30;99.90;;;;;;5041541;28;20223;-79
2021/09/26 09:09:09;;;;;;;6.30;5.20;;;20.20;99.90;;;;;;5042292;28;20422;-79
2021/09/26 09:11:38;;;;;;;8.33;5.93;;;20.20;99.90;;;;;;5045513;28;20491;-79
2021/09/26 09:14:04;;;;;;;7.33;5.50;;;20.40;99.90;;;;;;5029708;28;20400;-79
2021/09/26 09:16:32;;;;;;;5.20;4.70;;;20.40;99.90;;;;;;5030384;28;20464;-78
2021/09/26 09:18:59;;;;;;;8.03;5.97;;;20.40;99.90;;;;;;5045824;28;20207;-78
2021/09/26 09:21:29;;;;;;;7.70;6.20;;;20.40;99.90;;;;;;5043833;28;20619;-78
2021/09/26 09:24:15;;;;;;;8.07;6.27;;;20.50;99.90;;;;;;5042975;28;20828;-79
2021/09/26 09:26:44;;;;;;;9.03;5.57;;;20.50;99.90;;;;;;5039158;28;20443;-79
2021/09/26 09:29:09;;;;;;;7.43;6.10;;;20.60;99.90;;;;;;5042176;28;21000;-78
2021/09/26 09:31:49;;;;;;;7.27;6.50;;;20.60;99.90;;;;;;5041236;28;20412;-79
2021/09/26 09:34:31;;;;;;;5.87;4.70;;;20.70;99.90;;;;;;5039658;28;20311;-79
2021/09/26 09:37:14;;;;;;;6.73;5.17;;;20.70;99.90;;;;;;5039235;28;20488;-79
2021/09/26 09:39:42;;;;;;;5.93;5.13;;;20.70;99.90;;;;;;5039724;28;20498;-80
2021/09/26 09:42:19;;;;;;;5.20;4.70;;;20.80;99.90;;;;;;5040528;28;20511;-80
2021/09/26 09:44:46;;;;;;;5.50;4.40;;;20.80;99.90;;;;;;5042593;28;20546;-79
2021/09/26 09:47:12;;;;;;;6.90;5.50;;;20.80;99.90;;;;;;5040850;28;20423;-79
2021/09/26 09:49:54;;;;;;;5.70;4.70;;;20.80;99.90;;;;;;5041420;28;20417;-79
2021/09/26 09:52:43;;;;;;;4.40;4.00;;;20.90;99.90;;;;;;5043718;28;20429;-79
2021/09/26 09:55:15;;;;;;;5.13;4.70;;;20.90;99.90;;;;;;5041935;28;20433;-79
2021/09/26 09:57:46;;;;;;;6.13;4.70;;;21.00;99.90;;;;;;5041857;28;20420;-79
2021/09/26 10:00:20;;;;;;;7.70;4.50;;;21.00;99.90;;;;;;5041395;28;20413;-79
2021/09/26 10:02:46;;;;;;;6.57;4.20;;;21.00;99.90;;;;;;5040269;28;20435;-79
2021/09/26 10:05:34;;;;;;;6.13;5.23;;;21.10;99.90;;;;;;5040787;28;20435;-79
2021/09/26 10:08:01;;;;;;;4.70;3.97;;;21.00;99.90;;;;;;5041200;28;20439;-79
2021/09/26 10:10:33;;;;;;;5.07;3.77;;;21.10;99.90;;;;;;5042724;28;20431;-79
2021/09/26 10:13:13;;;;;;;5.77;5.17;;;21.10;99.90;;;;;;5040680;28;20947;-79
2021/09/26 10:15:39;;;;;;;5.27;4.60;;;21.10;99.90;;;;;;5039858;28;20444;-79
2021/09/26 10:18:08;;;;;;;5.07;4.53;;;21.10;99.90;;;;;;5041899;28;20502;-79
2021/09/26 10:20:35;;;;;;;6.40;4.33;;;21.20;99.90;;;;;;5037250;28;20426;-78
2021/09/26 10:23:01;;;;;;;6.23;4.43;;;21.30;99.90;;;;;;5037527;28;20412;-79
2021/09/26 10:25:28;;;;;;;7.13;4.13;;;21.50;99.90;;;;;;5034860;28;20519;-78
2021/09/26 10:27:58;;;;;;;4.97;3.93;;;21.50;99.90;;;;;;5035727;28;20416;-79
2021/09/26 10:30:39;;;;;;;4.90;4.13;;;21.60;99.90;;;;;;5038798;28;20772;-79
2021/09/26 10:44:29;;;;;;;4.80;4.00;;;22.00;99.90;;;;;;5037623;28;20376;-79
2021/09/26 10:54:45;;;;;;;6.17;4.63;;;22.20;99.90;;;;;;4900263;29;20531;-78
2021/09/26 10:57:49;;;;;;;4.40;3.93;;;22.30;99.90;;;;;;4882608;29;20403;-79
2021/09/26 11:04:40;;;;;;;5.33;4.33;;;22.40;99.90;;;;;;4883421;29;20408;-79
2021/09/26 11:07:21;;;;;;;4.23;3.83;;;22.30;99.90;;;;;;4882291;29;20474;-79
2021/09/26 11:37:51;;;;;;;4.00;3.60;;;22.40;99.90;;;;;;4921053;29;20417;-79
2021/09/26 11:40:26;;;;;;;5.20;4.57;;;22.40;99.90;;;;;;4965274;28;20452;-79
2021/09/26 11:46:40;;;;;;;5.50;4.90;;;22.60;99.90;;;;;;5023308;28;20431;-79
2021/09/26 11:49:13;;;;;;;5.80;4.50;;;22.60;99.90;;;;;;5039135;28;20724;-79
2021/09/26 11:52:02;;;;;;;5.23;4.20;;;22.70;99.90;;;;;;5039486;28;20427;-79
2021/09/26 11:54:57;;;;;;;8.23;4.27;;;22.70;99.90;;;;;;4982318;28;20828;-79
2021/09/26 11:57:22;;;;;;;5.60;4.50;;;22.70;99.90;;;;;;5039149;28;20426;-79
2021/09/26 11:59:48;;;;;;;5.23;4.17;;;22.70;99.90;;;;;;5039966;28;20451;-80
2021/09/26 12:02:15;;;;;;;4.93;4.30;;;22.70;99.90;;;;;;5039628;28;20645;-79
2021/09/26 12:04:42;;;;;;;9.07;5.90;;;22.70;99.90;;;;;;5039538;28;20169;-80
2021/09/26 12:07:08;;;;;;;4.37;3.97;;;22.70;99.90;;;;;;5042401;28;20448;-79
2021/09/26 12:09:48;;;;;;;5.07;4.57;;;22.70;99.90;;;;;;5043034;28;20873;-80
2021/09/26 12:12:25;;;;;;;5.33;4.30;;;22.70;99.90;;;;;;5040278;28;20952;-81
2021/09/26 12:15:06;;;;;;;3.60;3.30;;;22.80;99.90;;;;;;5041214;28;20446;-79
2021/09/26 12:17:33;;;;;;;5.17;4.40;;;22.80;99.90;;;;;;5044154;28;20857;-79
2021/09/26 12:20:14;;;;;;;5.17;4.33;;;22.90;99.90;;;;;;5045830;28;20431;-80
2021/09/26 12:22:40;;;;;;;4.23;3.83;;;22.90;99.90;;;;;;5044663;28;20411;-79
2021/09/26 12:25:13;;;;;;;4.63;3.70;;;23.00;99.90;;;;;;5045184;28;20412;-78
2021/09/26 12:27:48;;;;;;;6.40;5.23;;;23.00;99.90;;;;;;5045487;28;20861;-80
2021/09/26 12:30:41;;;;;;;5.20;4.53;;;22.90;99.90;;;;;;5046023;28;20408;-80
2021/09/26 12:33:30;;;;;;;4.30;3.90;;;22.90;99.90;;;;;;5046158;28;20443;-80
2021/09/26 12:36:00;;;;;;;5.20;4.70;;;23.00;99.90;;;;;;5051618;28;20448;-80
2021/09/26 12:38:28;;;;;;;4.40;3.97;;;23.10;99.90;;;;;;5056355;28;20440;-79
2021/09/26 12:41:08;;;;;;;4.20;3.77;;;23.10;99.90;;;;;;5056217;28;20420;-79
2021/09/26 12:43:45;;;;;;;4.23;3.83;;;23.20;99.90;;;;;;5056186;28;20455;-78
2021/09/26 12:46:12;;;;;;;4.50;4.10;;;23.20;99.90;;;;;;5056325;28;20416;-80
2021/09/26 12:48:38;;;;;;;5.00;4.10;;;23.10;99.90;;;;;;5055780;28;20496;-79
2021/09/26 12:51:09;;;;;;;4.63;4.20;;;23.20;99.90;;;;;;5054692;28;20413;-78
2021/09/26 12:53:39;;;;;;;4.60;4.07;;;23.30;99.90;;;;;;5046272;28;20439;-79
2021/09/26 12:56:05;;;;;;;5.70;4.33;;;23.40;99.90;;;;;;5040486;28;20420;-81
2021/09/26 12:58:41;;;;;;;7.20;5.70;;;23.50;99.90;;;;;;5038745;28;20620;-80
2021/09/26 13:01:21;;;;;;;5.77;5.17;;;23.50;99.90;;;;;;5035811;28;20179;-79
2021/09/26 13:03:51;;;;;;;5.43;4.63;;;23.60;99.90;;;;;;5036231;28;20403;-79
2021/09/26 13:06:27;;;;;;;5.73;4.33;;;23.50;99.90;;;;;;5036687;28;20432;-81
2021/09/26 13:08:53;;;;;;;5.43;4.00;;;23.40;99.90;;;;;;5036574;28;20452;-80
2021/09/26 13:11:25;;;;;;;5.77;3.90;;;23.30;99.90;;;;;;5036899;28;20439;-80
2021/09/26 13:14:09;;;;;;;5.40;3.93;;;23.20;99.90;;;;;;5042256;28;20785;-78
2021/09/26 13:16:42;;;;;;;6.17;4.70;;;23.20;99.90;;;;;;5040482;28;20818;-79
2021/09/26 13:19:26;;;;;;;7.40;4.53;;;23.10;99.90;;;;;;5040626;28;20455;-79
2021/09/26 13:22:11;;;;;;;9.00;4.33;;;23.10;99.90;;;;;;5041469;28;20404;-78
2021/09/26 13:25:15;;;;;;;4.93;4.10;;;23.00;99.90;;;;;;5042052;28;20899;-80
2021/09/26 13:28:03;;;;;;;7.27;4.33;;;22.90;99.90;;;;;;5045627;28;20507;-79
2021/09/26 13:30:38;;;;;;;7.13;4.60;;;22.90;99.90;;;;;;5046185;28;20404;-79
2021/09/26 13:33:35;;;;;;;4.60;3.70;;;22.90;99.90;;;;;;5044674;28;20411;-79
2021/09/26 13:36:25;;;;;;;4.80;4.40;;;23.00;99.90;;;;;;5043483;28;20436;-80
2021/09/26 13:38:54;;;;;;;3.90;3.33;;;23.10;99.90;;;;;;5052873;28;20451;-80
2021/09/26 13:41:30;;;;;;;4.97;3.97;;;23.10;99.90;;;;;;5054871;28;20405;-79
2021/09/26 13:44:06;;;;;;;3.67;3.27;;;23.10;99.90;;;;;;5057423;28;20415;-79